createdAt,value
2023-03-24T00:00:24.199Z,77
2023-03-24T00:05:26.995Z,77
2023-03-24T00:10:33.084Z,78
2023-03-24T00:15:21.851Z,78
2023-03-24T00:20:29.954Z,78
2023-03-24T00:25:16.982Z,78
2023-03-24T00:30:22.881Z,79
2023-03-24T00:35:29.589Z,79
2023-03-24T00:40:18.163Z,79
2023-03-24T00:45:23.923Z,79
2023-03-24T00:50:30.081Z,79
2023-03-24T00:55:18.886Z,79
2023-03-24T01:00:27.307Z,79
2023-03-24T01:05:31.479Z,80
2023-03-24T01:10:20.497Z,80
2023-03-24T01:15:26.286Z,81
2023-03-24T01:20:32.625Z,82
2023-03-24T01:25:21.338Z,82
2023-03-24T01:30:28.314Z,82
2023-03-24T01:35:16.221Z,82
2023-03-24T01:40:22.656Z,82
2023-03-24T01:45:28.324Z,82
2023-03-24T01:50:17.593Z,83
2023-03-24T01:55:23.493Z,86
2023-03-24T02:00:32.377Z,88
2023-03-24T02:05:19.129Z,90
2023-03-24T02:10:25.221Z,91
2023-03-24T02:15:31.049Z,91
2023-03-24T02:20:21.706Z,92
2023-03-24T02:25:26.096Z,92
2023-03-24T02:30:31.929Z,92
2023-03-24T02:35:20.703Z,92
2023-03-24T02:40:27.263Z,92
2023-03-24T02:45:32.836Z,92
2023-03-24T02:50:22.197Z,91
2023-03-24T02:55:28.200Z,92
2023-03-24T03:00:21.986Z,92
2023-03-24T03:05:22.347Z,93
2023-03-24T03:10:28.677Z,93
2023-03-24T03:15:17.459Z,93
2023-03-24T03:20:23.892Z,93
2023-03-24T03:25:29.826Z,93
2023-03-24T03:30:19.300Z,93
2023-03-24T03:35:25.163Z,93
2023-03-24T03:40:31.515Z,93
2023-03-24T03:45:20.245Z,93
2023-03-24T03:50:26.322Z,94
2023-03-24T03:55:32.661Z,94
2023-03-24T04:00:26.491Z,94
2023-03-24T04:05:26.961Z,93
2023-03-24T04:10:33.164Z,93
2023-03-24T04:15:21.882Z,92
2023-03-24T04:20:28.225Z,92
2023-03-24T04:25:17.267Z,92
2023-03-24T04:30:22.801Z,91
2023-03-24T04:35:29.101Z,91
2023-03-24T04:40:17.989Z,91
2023-03-24T04:45:24.213Z,91
2023-03-24T04:50:29.988Z,91
2023-03-24T04:55:18.991Z,90
2023-03-24T05:00:25.641Z,91
2023-03-24T05:05:30.485Z,91
2023-03-24T05:10:21.769Z,90
2023-03-24T05:15:25.575Z,90
2023-03-24T05:20:31.766Z,90
2023-03-24T05:25:20.536Z,90
2023-03-24T05:30:28.161Z,90
2023-03-24T05:35:33.356Z,90
2023-03-24T05:40:22.925Z,90
2023-03-24T05:45:28.515Z,89
2023-03-24T05:50:17.290Z,89
2023-03-24T05:55:23.710Z,89
2023-03-24T06:00:32.203Z,88
2023-03-24T06:05:17.992Z,88
2023-03-24T06:10:24.066Z,87
2023-03-24T06:15:30.349Z,87
2023-03-24T06:20:19.063Z,86
2023-03-24T06:25:27.162Z,85
2023-03-24T06:30:30.391Z,84
2023-03-24T06:35:19.694Z,84
2023-03-24T06:40:25.661Z,84
2023-03-24T06:45:31.803Z,84
2023-03-24T06:50:21.568Z,84
2023-03-24T06:55:27.577Z,84
2023-03-24T07:00:32.941Z,84
2023-03-24T07:05:22.207Z,84
2023-03-24T07:10:28.388Z,83
2023-03-24T07:15:17.077Z,82
2023-03-24T07:20:24.197Z,82
2023-03-24T07:25:30.255Z,81
2023-03-24T07:30:24.246Z,81
2023-03-24T07:35:24.521Z,82
2023-03-24T07:40:31.914Z,82
2023-03-24T07:45:19.481Z,82
2023-03-24T07:50:25.197Z,82
2023-03-24T07:55:31.054Z,82
2023-03-24T08:00:23.084Z,83
2023-03-24T08:05:25.720Z,83
2023-03-24T08:10:31.490Z,83
2023-03-24T08:15:20.500Z,84
2023-03-24T08:20:27.064Z,85
2023-03-24T08:25:32.526Z,86
2023-03-24T08:30:22.841Z,87
2023-03-24T08:35:29.330Z,88
2023-03-24T08:40:20.084Z,89
2023-03-24T08:45:29.318Z,90
2023-03-24T08:50:29.857Z,90
2023-03-24T08:55:19.330Z,90
2023-03-24T09:00:27.662Z,90
2023-03-24T09:05:44.088Z,90
2023-03-24T09:10:19.279Z,89
2023-03-24T09:15:25.197Z,89
2023-03-24T09:20:32.253Z,89
2023-03-24T09:25:20.305Z,89
2023-03-24T09:30:25.752Z,89
2023-03-24T09:35:31.732Z,89
2023-03-24T09:40:22.297Z,88
2023-03-24T09:45:27.110Z,88
2023-03-24T09:50:32.840Z,88
2023-03-24T09:55:21.831Z,88
2023-03-24T10:00:30.095Z,88
2023-03-24T10:05:18.784Z,89
2023-03-24T10:10:23.517Z,89
2023-03-24T10:15:38.411Z,90
2023-03-24T10:20:19.798Z,91
2023-03-24T10:25:24.925Z,92
2023-03-24T10:30:29.952Z,92
2023-03-24T10:35:19.716Z,93
2023-03-24T10:40:25.230Z,93
2023-03-24T10:45:30.826Z,93
2023-03-24T10:50:19.864Z,93
2023-03-24T10:55:25.921Z,93
2023-03-24T11:00:37.338Z,92
2023-03-24T11:05:20.694Z,91
2023-03-24T11:10:27.053Z,91
2023-03-24T11:15:32.876Z,90
2023-03-24T11:20:22.712Z,89
2023-03-24T11:25:27.885Z,89
2023-03-24T11:30:19.390Z,88
2023-03-24T11:35:27.064Z,87
2023-03-24T11:40:31.777Z,87
2023-03-24T11:45:18.098Z,86
2023-03-24T11:50:26.609Z,86
2023-03-24T11:55:30.060Z,85
2023-03-24T12:00:22.731Z,84
2023-03-24T12:05:24.650Z,84
2023-03-24T12:10:30.496Z,84
2023-03-24T12:15:28.012Z,83
2023-03-24T12:20:26.897Z,82
2023-03-24T12:25:33.311Z,82
2023-03-24T12:30:21.026Z,82
2023-03-24T12:35:27.115Z,81
2023-03-24T12:40:33.198Z,81
2023-03-24T12:45:22.204Z,82
2023-03-24T12:50:28.194Z,81
2023-03-24T12:55:18.637Z,81
2023-03-24T13:00:25.403Z,81
2023-03-24T13:05:28.691Z,80
2023-03-24T13:10:17.773Z,80
2023-03-24T13:15:23.824Z,80
2023-03-24T13:20:29.945Z,80
2023-03-24T13:25:18.784Z,79
2023-03-24T13:30:25.162Z,79
2023-03-24T13:35:31.250Z,79
2023-03-24T13:40:20.286Z,76
2023-03-24T13:45:26.314Z,76
2023-03-24T13:50:32.463Z,74
2023-03-24T13:55:21.295Z,73
2023-03-24T14:00:31.704Z,72
2023-03-24T14:05:33.419Z,73
2023-03-24T14:10:21.903Z,74
2023-03-24T14:15:28.063Z,88
2023-03-24T14:20:17.290Z,92
2023-03-24T14:25:23.030Z,93
2023-03-24T14:30:28.694Z,94
2023-03-24T14:35:17.842Z,95
2023-03-24T14:40:29.060Z,95
2023-03-24T14:45:32.631Z,95
2023-03-24T14:50:18.719Z,95
2023-03-24T14:55:24.873Z,96
2023-03-24T15:00:32.374Z,96
2023-03-24T15:05:22.542Z,96
2023-03-24T15:10:26.512Z,96
2023-03-24T15:15:32.727Z,96
2023-03-24T15:20:22.214Z,96
2023-03-24T15:25:27.472Z,96
2023-03-24T15:30:32.579Z,96
2023-03-24T15:35:21.682Z,96
2023-03-24T15:40:27.721Z,96
2023-03-24T15:45:16.756Z,96
2023-03-24T15:50:23.050Z,95
2023-03-24T15:55:28.882Z,94
2023-03-24T16:00:21.483Z,93
2023-03-24T16:05:23.860Z,93
2023-03-24T16:10:29.654Z,93
2023-03-24T16:15:18.857Z,93
2023-03-24T16:20:25.426Z,93
2023-03-24T16:25:30.931Z,94
2023-03-24T16:30:20.334Z,94
2023-03-24T16:35:26.382Z,94
2023-03-24T16:40:34.344Z,94
2023-03-24T16:45:21.435Z,94
2023-03-24T16:50:27.651Z,93
2023-03-24T16:55:33.367Z,93
2023-03-24T17:00:23.884Z,93
2023-03-24T17:05:28.514Z,92
2023-03-24T17:10:17.612Z,92
2023-03-24T17:15:23.787Z,92
2023-03-24T17:20:29.574Z,93
2023-03-24T17:25:18.482Z,92
2023-03-24T17:30:24.499Z,92
2023-03-24T17:35:30.452Z,92
2023-03-24T17:40:19.770Z,92
2023-03-24T17:45:25.465Z,91
2023-03-24T17:50:31.662Z,91
2023-03-24T17:55:20.620Z,91
2023-03-24T18:00:31.159Z,92
2023-03-24T18:05:32.205Z,92
2023-03-24T18:10:20.901Z,93
2023-03-24T18:15:27.005Z,93
2023-03-24T18:20:33.326Z,93
2023-03-24T18:25:22.264Z,93
2023-03-24T18:30:29.162Z,94
2023-03-24T18:35:17.326Z,94
2023-03-24T18:40:23.146Z,94
2023-03-24T18:45:28.688Z,94
2023-03-24T18:50:17.706Z,94
2023-03-24T18:55:23.844Z,95
2023-03-24T19:00:31.200Z,95
2023-03-24T19:05:19.552Z,95
2023-03-24T19:10:26.143Z,95
2023-03-24T19:15:31.628Z,95
2023-03-24T19:20:20.752Z,95
2023-03-24T19:25:26.838Z,96
2023-03-24T19:30:32.776Z,96
2023-03-24T19:35:21.596Z,96
2023-03-24T19:40:28.097Z,96
2023-03-24T19:45:17.126Z,96
2023-03-24T19:50:23.272Z,96
2023-03-24T19:55:29.098Z,96
2023-03-24T20:00:20.322Z,96
2023-03-24T20:05:24.357Z,96
2023-03-24T20:10:30.426Z,96
2023-03-24T20:15:19.338Z,96
2023-03-24T20:20:27.179Z,96
2023-03-24T20:25:31.507Z,96
2023-03-24T20:30:19.879Z,96
2023-03-24T20:35:25.891Z,96
2023-03-24T20:40:33.579Z,96
2023-03-24T20:45:20.971Z,95
2023-03-24T20:50:27.021Z,93
2023-03-24T20:55:32.928Z,91
2023-03-24T21:00:23.812Z,91
2023-03-24T21:05:28.464Z,91
2023-03-24T21:10:17.874Z,91
2023-03-24T21:15:23.646Z,91
2023-03-24T21:20:29.961Z,92
2023-03-24T21:25:18.751Z,92
2023-03-24T21:30:24.770Z,92
2023-03-24T21:35:31.116Z,91
2023-03-24T21:40:21.554Z,91
2023-03-24T21:45:26.089Z,92
2023-03-24T21:50:32.254Z,92
2023-03-24T21:55:21.030Z,92
2023-03-24T22:00:31.578Z,92
2023-03-24T22:05:32.839Z,92
2023-03-24T22:10:21.531Z,93
2023-03-24T22:15:27.633Z,93
2023-03-24T22:20:17.514Z,93
2023-03-24T22:25:22.891Z,93
2023-03-24T22:30:29.521Z,93
2023-03-24T22:35:18.754Z,93
2023-03-24T22:40:24.890Z,93
2023-03-24T22:45:30.409Z,92
2023-03-24T22:50:19.654Z,92
2023-03-24T22:55:25.616Z,93
2023-03-24T23:00:33.937Z,92
2023-03-24T23:05:20.785Z,92
2023-03-24T23:10:26.603Z,92
2023-03-24T23:15:32.651Z,92
2023-03-24T23:20:22.238Z,93
2023-03-24T23:25:27.399Z,93
2023-03-24T23:30:32.524Z,93
2023-03-24T23:35:21.589Z,93
2023-03-24T23:40:28.120Z,93
2023-03-24T23:45:16.529Z,92
2023-03-24T23:50:22.939Z,92
2023-03-24T23:55:28.697Z,92
